createdAt,value
2023-02-20T00:00:40.669Z,100513.22
2023-02-20T00:01:48.108Z,100506.28
2023-02-20T00:02:50.432Z,100507.19
2023-02-20T00:03:52.667Z,100498.50
2023-02-20T00:04:54.897Z,100503.69
2023-02-20T00:05:57.259Z,100494.16
2023-02-20T00:06:59.411Z,100497.66
2023-02-20T00:08:02.017Z,100502.91
2023-02-20T00:09:04.280Z,100497.63
2023-02-20T00:10:07.219Z,100497.59
2023-02-20T00:11:09.617Z,100509.91
2023-02-20T00:12:11.802Z,100501.16
2023-02-20T00:13:14.002Z,100508.97
2023-02-20T00:14:16.267Z,100500.31
2023-02-20T00:15:19.823Z,100496.81
2023-02-20T00:16:21.997Z,100513.34
2023-02-20T00:17:24.266Z,100505.53
2023-02-20T00:18:26.574Z,100505.50
2023-02-20T00:19:28.851Z,100516.00
2023-02-20T00:20:31.942Z,100500.22
2023-02-20T00:21:34.189Z,100502.06
2023-02-20T00:22:36.389Z,100521.34
2023-02-20T00:23:38.721Z,100514.34
2023-02-20T00:24:41.625Z,100524.78
2023-02-20T00:25:43.856Z,100515.03
2023-02-20T00:26:51.140Z,100522.84
2023-02-20T00:27:53.511Z,100524.75
2023-02-20T00:28:55.717Z,100528.41
2023-02-20T00:29:57.944Z,100528.31
2023-02-20T00:31:00.272Z,100534.25
2023-02-20T00:32:02.923Z,100527.47
2023-02-20T00:33:08.042Z,100533.50
2023-02-20T00:34:10.339Z,100525.78
2023-02-20T00:35:12.709Z,100527.50
2023-02-20T00:36:17.213Z,100523.19
2023-02-20T00:37:19.924Z,100525.00
2023-02-20T00:38:22.220Z,100529.28
2023-02-20T00:39:24.476Z,100512.03
2023-02-20T00:40:26.937Z,100524.34
2023-02-20T00:41:29.225Z,100527.06
2023-02-20T00:42:31.497Z,100522.69
2023-02-20T00:43:36.281Z,100525.34
2023-02-20T00:44:38.928Z,100528.88
2023-02-20T00:45:42.035Z,100527.13
2023-02-20T00:46:44.344Z,100528.91
2023-02-20T00:47:48.198Z,100522.81
2023-02-20T00:48:50.911Z,100525.31
2023-02-20T00:50:14.601Z,100523.53
2023-02-20T00:51:17.057Z,100512.19
2023-02-20T00:52:21.208Z,100525.22
2023-02-20T00:53:25.112Z,100524.34
2023-02-20T00:54:28.698Z,100528.78
2023-02-20T00:55:31.023Z,100528.81
2023-02-20T00:56:33.245Z,100529.72
2023-02-20T00:57:35.548Z,100531.53
2023-02-20T00:58:37.750Z,100529.88
2023-02-20T00:59:40.077Z,100528.09
2023-02-20T01:00:42.332Z,100528.94
2023-02-20T01:01:44.661Z,100523.66
2023-02-20T01:02:47.064Z,100527.13
2023-02-20T01:03:49.319Z,100517.41
2023-02-20T01:04:51.556Z,100524.44
2023-02-20T01:05:53.765Z,100522.66
2023-02-20T01:06:55.944Z,100522.84
2023-02-20T01:07:58.177Z,100521.97
2023-02-20T01:09:01.960Z,100521.13
2023-02-20T01:10:05.037Z,100521.19
2023-02-20T01:11:08.019Z,100516.06
2023-02-20T01:12:11.328Z,100513.47
2023-02-20T01:13:13.549Z,100512.63
2023-02-20T01:14:15.922Z,100513.50
2023-02-20T01:15:18.169Z,100514.44
2023-02-20T01:16:20.446Z,100508.22
2023-02-20T01:17:22.782Z,100514.41
2023-02-20T01:18:25.364Z,100521.44
2023-02-20T01:19:27.628Z,100520.44
2023-02-20T01:20:29.890Z,100515.25
2023-02-20T01:21:32.088Z,100514.44
2023-02-20T01:22:34.316Z,100511.84
2023-02-20T01:23:36.524Z,100524.06
2023-02-20T01:24:38.842Z,100514.44
2023-02-20T01:25:41.086Z,100515.25
2023-02-20T01:26:47.762Z,100517.84
2023-02-20T01:27:50.002Z,100507.41
2023-02-20T01:28:52.173Z,100510.81
2023-02-20T01:29:54.386Z,100519.59
2023-02-20T01:30:56.601Z,100505.69
2023-02-20T01:31:59.003Z,100502.38
2023-02-20T01:33:01.338Z,100504.91
2023-02-20T01:34:05.867Z,100510.19
2023-02-20T01:35:09.024Z,100511.00
2023-02-20T01:36:12.235Z,100508.38
2023-02-20T01:37:15.903Z,100509.22
2023-02-20T01:38:18.133Z,100505.81
2023-02-20T01:39:26.084Z,100513.66
2023-02-20T01:40:28.679Z,100512.81
2023-02-20T01:41:30.931Z,100513.69
2023-02-20T01:42:36.388Z,100512.81
2023-02-20T01:43:38.613Z,100512.75
2023-02-20T01:44:42.265Z,100512.81
2023-02-20T01:45:44.650Z,100503.19
2023-02-20T01:46:51.291Z,100507.53
2023-02-20T01:47:56.825Z,100505.88
2023-02-20T01:49:45.823Z,100505.00
2023-02-20T01:50:50.440Z,100504.13
2023-02-20T01:52:19.668Z,100499.75
2023-02-20T01:53:25.655Z,100497.22
2023-02-20T01:54:29.049Z,100496.34
2023-02-20T01:55:43.663Z,100500.66
2023-02-20T01:56:48.632Z,100500.69
2023-02-20T01:58:00.761Z,100504.16
2023-02-20T01:59:05.877Z,100511.16
2023-02-20T02:02:11.750Z,100496.44
2023-02-20T02:03:24.523Z,100494.78
2023-02-20T02:04:28.088Z,100499.09
2023-02-20T02:05:32.822Z,100491.22
2023-02-20T02:06:40.761Z,100502.53
2023-02-20T02:07:44.127Z,100499.84
2023-02-20T02:08:46.749Z,100494.72
2023-02-20T02:09:56.215Z,100493.00
2023-02-20T02:11:19.511Z,100490.47
2023-02-20T02:12:22.789Z,100492.19
2023-02-20T02:13:25.110Z,100486.97
2023-02-20T02:14:30.162Z,100493.03
2023-02-20T02:15:32.540Z,100490.41
2023-02-20T02:17:07.141Z,100485.28
2023-02-20T02:18:31.469Z,100479.22
2023-02-20T02:19:42.654Z,100481.75
2023-02-20T02:20:46.811Z,100480.06
2023-02-20T02:22:13.268Z,100480.94
2023-02-20T02:23:34.193Z,100493.09
2023-02-20T02:24:39.262Z,100482.66
2023-02-20T02:26:00.533Z,100469.66
2023-02-20T02:27:17.560Z,100475.72
2023-02-20T02:28:37.827Z,100479.22
2023-02-20T02:29:48.404Z,100480.06
2023-02-20T02:31:16.928Z,100480.97
2023-02-20T02:32:49.039Z,100487.94
2023-02-20T02:34:20.642Z,100481.00
2023-02-20T02:35:42.445Z,100484.47
2023-02-20T02:37:07.945Z,100490.50
2023-02-20T02:38:31.639Z,100487.03
2023-02-20T02:39:50.377Z,100488.75
2023-02-20T02:41:21.635Z,100487.84
2023-02-20T02:42:40.357Z,100484.38
2023-02-20T02:43:57.577Z,100477.50
2023-02-20T02:45:11.483Z,100475.72
2023-02-20T02:46:37.286Z,100480.94
2023-02-20T02:47:50.840Z,100476.63
2023-02-20T02:49:01.101Z,100488.75
2023-02-20T02:50:11.956Z,100478.41
2023-02-20T02:51:21.918Z,100480.94
2023-02-20T02:52:48.571Z,100478.34
2023-02-20T02:54:10.744Z,100480.09
2023-02-20T02:55:26.520Z,100480.09
2023-02-20T02:56:41.627Z,100477.44
2023-02-20T02:57:43.968Z,100475.72
2023-02-20T02:58:46.904Z,100472.22
2023-02-20T02:59:54.608Z,100470.50
2023-02-20T03:01:01.949Z,100480.06
2023-02-20T03:02:11.672Z,100477.38
2023-02-20T03:03:19.306Z,100463.56
2023-02-20T03:04:30.275Z,100472.22
2023-02-20T03:05:40.141Z,100473.13
2023-02-20T03:06:46.785Z,100472.28
2023-02-20T03:07:53.399Z,100463.59
2023-02-20T03:09:02.051Z,100473.19
2023-02-20T03:10:10.224Z,100465.31
2023-02-20T03:11:18.564Z,100462.66
2023-02-20T03:12:22.904Z,100464.41
2023-02-20T03:13:47.923Z,100464.47
2023-02-20T03:15:30.871Z,100464.47
2023-02-20T03:16:45.702Z,100464.47
2023-02-20T03:17:52.162Z,100461.94
2023-02-20T03:19:01.461Z,100467.09
2023-02-20T03:20:10.524Z,100461.00
2023-02-20T03:21:17.507Z,100471.47
2023-02-20T03:22:25.528Z,100462.75
2023-02-20T03:23:34.694Z,100472.31
2023-02-20T03:24:55.181Z,100467.97
2023-02-20T03:26:07.506Z,100468.88
2023-02-20T03:27:09.874Z,100468.88
2023-02-20T03:28:35.388Z,100467.09
2023-02-20T03:29:44.430Z,100474.09
2023-02-20T03:30:54.555Z,100469.75
2023-02-20T03:32:22.862Z,100469.75
2023-02-20T03:34:49.407Z,100468.03
2023-02-20T03:36:14.514Z,100461.00
2023-02-20T03:37:39.868Z,100474.06
2023-02-20T03:39:05.525Z,100461.88
2023-02-20T03:40:32.133Z,100474.03
2023-02-20T03:41:58.346Z,100463.59
2023-02-20T03:43:25.751Z,100462.69
2023-02-20T03:44:33.500Z,100456.56
2023-02-20T03:45:39.559Z,100457.47
2023-02-20T03:46:44.379Z,100454.88
2023-02-20T03:47:52.782Z,100455.75
2023-02-20T03:49:04.062Z,100453.16
2023-02-20T03:50:09.957Z,100460.97
2023-02-20T03:51:13.639Z,100459.19
2023-02-20T03:52:26.017Z,100463.50
2023-02-20T03:53:28.707Z,100462.69
2023-02-20T03:54:32.717Z,100463.50
2023-02-20T03:55:36.756Z,100462.69
2023-02-20T03:56:45.194Z,100463.59
2023-02-20T03:57:53.628Z,100464.47
2023-02-20T03:59:04.424Z,100457.47
2023-02-20T04:00:13.633Z,100460.09
2023-02-20T04:01:27.528Z,100460.16
2023-02-20T04:02:33.776Z,100459.19
2023-02-20T04:03:41.616Z,100459.25
2023-02-20T04:04:53.314Z,100451.44
2023-02-20T04:05:58.727Z,100466.19
2023-02-20T04:07:15.437Z,100453.97
2023-02-20T04:08:23.512Z,100440.09
2023-02-20T04:09:33.074Z,100449.63
2023-02-20T04:10:43.692Z,100443.47
2023-02-20T04:12:01.080Z,100439.09
2023-02-20T04:13:05.152Z,100447.03
2023-02-20T04:14:09.382Z,100438.31
2023-02-20T04:15:13.908Z,100438.38
2023-02-20T04:16:17.190Z,100435.78
2023-02-20T04:17:24.452Z,100438.41
2023-02-20T04:18:28.202Z,100441.81
2023-02-20T04:19:31.328Z,100443.47
2023-02-20T04:20:33.804Z,100440.84
2023-02-20T04:21:55.903Z,100437.31
2023-02-20T04:23:05.717Z,100436.41
2023-02-20T04:25:00.521Z,100434.66
2023-02-20T04:26:12.035Z,100438.97
2023-02-20T04:27:17.657Z,100451.16
2023-02-20T04:28:28.455Z,100445.91
2023-02-20T04:29:35.118Z,100442.47
2023-02-20T04:30:37.701Z,100446.88
2023-02-20T04:31:40.451Z,100439.84
2023-02-20T04:32:44.933Z,100438.13
2023-02-20T04:33:48.129Z,100445.09
2023-02-20T04:34:57.590Z,100443.38
2023-02-20T04:36:00.962Z,100440.78
2023-02-20T04:37:13.077Z,100448.50
2023-02-20T04:38:15.985Z,100448.56
2023-02-20T04:39:18.590Z,100450.34
2023-02-20T04:40:23.562Z,100462.50
2023-02-20T04:41:25.829Z,100452.09
2023-02-20T04:42:28.611Z,100456.47
2023-02-20T04:43:36.302Z,100450.44
2023-02-20T04:44:40.269Z,100449.66
2023-02-20T04:45:44.961Z,100453.22
2023-02-20T04:46:48.041Z,100454.94
2023-02-20T04:47:51.516Z,100454.06
2023-02-20T04:48:53.740Z,100454.94
2023-02-20T04:49:55.948Z,100453.22
2023-02-20T04:51:02.909Z,100458.44
2023-02-20T04:52:07.263Z,100462.81
2023-02-20T04:53:09.844Z,100465.28
2023-02-20T04:54:12.611Z,100456.56
2023-02-20T04:55:15.258Z,100456.66
2023-02-20T04:56:18.728Z,100454.94
2023-02-20T04:57:22.261Z,100466.13
2023-02-20T04:58:24.598Z,100460.00
2023-02-20T04:59:30.410Z,100457.47
2023-02-20T05:00:32.672Z,100458.38
2023-02-20T05:01:35.767Z,100453.22
2023-02-20T05:02:39.145Z,100450.56
2023-02-20T05:03:41.383Z,100460.97
2023-02-20T05:04:43.655Z,100457.41
2023-02-20T05:05:45.934Z,100459.03
2023-02-20T05:06:53.529Z,100450.38
2023-02-20T05:08:01.689Z,100453.00
2023-02-20T05:09:05.202Z,100453.94
2023-02-20T05:10:07.598Z,100463.41
2023-02-20T05:11:09.943Z,100453.03
2023-02-20T05:12:12.183Z,100447.78
2023-02-20T05:13:14.395Z,100452.09
2023-02-20T05:14:16.913Z,100453.81
2023-02-20T05:15:20.156Z,100453.91
2023-02-20T05:16:22.403Z,100452.31
2023-02-20T05:17:24.627Z,100454.78
2023-02-20T05:18:28.303Z,100446.22
2023-02-20T05:19:30.526Z,100452.34
2023-02-20T05:20:51.545Z,100450.59
2023-02-20T05:22:12.048Z,100450.63
2023-02-20T05:23:14.311Z,100450.53
2023-02-20T05:24:16.982Z,100450.53
2023-02-20T05:25:20.065Z,100449.66
2023-02-20T05:26:22.604Z,100451.50
2023-02-20T05:27:25.913Z,100452.41
2023-02-20T05:28:28.116Z,100455.03
2023-02-20T05:29:30.436Z,100455.06
2023-02-20T05:30:32.795Z,100454.22
2023-02-20T05:31:35.183Z,100457.69
2023-02-20T05:32:37.625Z,100462.88
2023-02-20T05:33:39.946Z,100463.72
2023-02-20T05:34:43.793Z,100461.06
2023-02-20T05:35:46.001Z,100457.53
2023-02-20T05:36:48.838Z,100464.47
2023-02-20T05:37:51.368Z,100454.88
2023-02-20T05:38:53.611Z,100449.66
2023-02-20T05:39:55.801Z,100462.69
2023-02-20T05:40:58.004Z,100463.50
2023-02-20T05:42:00.201Z,100458.38
2023-02-20T05:43:02.458Z,100458.38
2023-02-20T05:44:05.317Z,100454.94
2023-02-20T05:45:09.141Z,100460.28
2023-02-20T05:46:12.145Z,100459.38
2023-02-20T05:47:14.552Z,100464.59
2023-02-20T05:48:16.836Z,100456.78
2023-02-20T05:49:19.323Z,100461.94
2023-02-20T05:50:21.506Z,100463.66
2023-02-20T05:51:28.585Z,100456.72
2023-02-20T05:52:30.916Z,100452.38
2023-02-20T05:53:33.403Z,100460.16
2023-02-20T05:54:36.020Z,100454.94
2023-02-20T05:55:38.185Z,100458.41
2023-02-20T05:56:44.587Z,100455.69
2023-02-20T05:57:46.840Z,100458.44
2023-02-20T05:58:50.134Z,100454.19
2023-02-20T05:59:52.346Z,100466.31
2023-02-20T06:00:54.565Z,100462.00
2023-02-20T06:01:58.738Z,100453.34
2023-02-20T06:03:02.037Z,100460.22
2023-02-20T06:04:04.642Z,100453.28
2023-02-20T06:05:07.669Z,100447.19
2023-02-20T06:06:10.136Z,100458.44
2023-02-20T06:07:12.414Z,100450.69
2023-02-20T06:08:14.593Z,100450.66
2023-02-20T06:09:17.692Z,100450.69
2023-02-20T06:10:20.280Z,100444.56
2023-02-20T06:11:22.640Z,100441.88
2023-02-20T06:12:24.908Z,100450.63
2023-02-20T06:13:27.087Z,100454.16
2023-02-20T06:14:29.301Z,100451.53
2023-02-20T06:15:31.493Z,100452.44
2023-02-20T06:16:34.964Z,100433.34
2023-02-20T06:17:37.197Z,100447.28
2023-02-20T06:18:41.016Z,100438.59
2023-02-20T06:19:43.226Z,100446.34
2023-02-20T06:20:45.443Z,100453.22
2023-02-20T06:21:51.449Z,100454.13
2023-02-20T06:22:53.707Z,100454.13
2023-02-20T06:23:56.010Z,100447.19
2023-02-20T06:24:58.333Z,100452.38
2023-02-20T06:26:00.742Z,100450.63
2023-02-20T06:27:03.068Z,100451.56
2023-02-20T06:28:05.508Z,100454.25
2023-02-20T06:29:07.818Z,100455.16
2023-02-20T06:30:11.027Z,100450.84
2023-02-20T06:31:13.937Z,100446.47
2023-02-20T06:32:16.752Z,100443.91
2023-02-20T06:33:18.998Z,100456.00
2023-02-20T06:34:23.436Z,100449.03
2023-02-20T06:35:25.630Z,100456.84
2023-02-20T06:36:31.240Z,100453.28
2023-02-20T06:37:33.546Z,100454.13
2023-02-20T06:38:36.568Z,100453.22
2023-02-20T06:39:39.888Z,100454.94
2023-02-20T06:40:42.173Z,100449.72
2023-02-20T06:41:45.223Z,100454.06
2023-02-20T06:42:47.837Z,100461.00
2023-02-20T06:43:50.288Z,100458.38
2023-02-20T06:44:52.450Z,100451.50
2023-02-20T06:45:54.606Z,100448.06
2023-02-20T06:46:56.941Z,100452.41
2023-02-20T06:47:59.258Z,100441.09
2023-02-20T06:49:01.731Z,100452.47
2023-02-20T06:50:04.848Z,100447.25
2023-02-20T06:51:07.093Z,100449.78
2023-02-20T06:52:10.265Z,100454.88
2023-02-20T06:53:12.507Z,100449.66
2023-02-20T06:54:14.788Z,100448.75
2023-02-20T06:55:17.044Z,100447.78
2023-02-20T06:56:22.279Z,100460.81
2023-02-20T06:57:24.530Z,100459.88
2023-02-20T06:58:26.760Z,100459.13
2023-02-20T06:59:29.161Z,100457.41
2023-02-20T07:00:31.491Z,100452.97
2023-02-20T07:01:40.663Z,100458.03
2023-02-20T07:02:42.954Z,100451.00
2023-02-20T07:03:46.910Z,100455.38
2023-02-20T07:04:49.851Z,100455.28
2023-02-20T07:05:52.074Z,100447.25
2023-02-20T07:06:54.712Z,100450.94
2023-02-20T07:07:56.921Z,100447.31
2023-02-20T07:08:59.152Z,100446.31
2023-02-20T07:10:01.550Z,100454.97
2023-02-20T07:11:04.095Z,100451.38
2023-02-20T07:12:06.710Z,100457.34
2023-02-20T07:13:08.960Z,100452.09
2023-02-20T07:14:11.183Z,100453.78
2023-02-20T07:15:13.648Z,100463.47
2023-02-20T07:16:16.161Z,100451.91
2023-02-20T07:17:18.524Z,100454.69
2023-02-20T07:18:23.715Z,100451.94
2023-02-20T07:19:25.857Z,100457.16
2023-02-20T07:20:28.121Z,100454.41
2023-02-20T07:21:30.334Z,100450.94
2023-02-20T07:22:32.599Z,100455.09
2023-02-20T07:23:34.930Z,100457.53
2023-02-20T07:24:37.098Z,100454.91
2023-02-20T07:25:39.284Z,100459.00
2023-02-20T07:26:41.464Z,100458.84
2023-02-20T07:27:43.703Z,100452.66
2023-02-20T07:28:45.890Z,100452.06
2023-02-20T07:29:49.557Z,100447.53
2023-02-20T07:30:51.967Z,100454.19
2023-02-20T07:31:54.281Z,100459.31
2023-02-20T07:32:56.630Z,100457.31
2023-02-20T07:33:59.313Z,100453.03
2023-02-20T07:35:06.162Z,100458.16
2023-02-20T07:36:11.965Z,100458.91
2023-02-20T07:37:15.110Z,100462.31
2023-02-20T07:38:17.449Z,100459.25
2023-02-20T07:39:19.682Z,100459.69
2023-02-20T07:40:22.187Z,100459.34
2023-02-20T07:41:26.029Z,100455.31
2023-02-20T07:42:28.284Z,100461.00
2023-02-20T07:43:41.322Z,100459.84
2023-02-20T07:44:46.702Z,100468.88
2023-02-20T07:45:48.941Z,100467.63
2023-02-20T07:46:51.279Z,100464.56
2023-02-20T07:47:53.490Z,100466.50
2023-02-20T07:48:55.710Z,100469.53
2023-02-20T07:49:57.909Z,100468.41
2023-02-20T07:51:00.140Z,100462.69
2023-02-20T07:52:02.323Z,100465.66
2023-02-20T07:53:04.608Z,100470.66
2023-02-20T07:54:07.148Z,100476.94
2023-02-20T07:55:09.512Z,100476.53
2023-02-20T07:56:12.072Z,100472.81
2023-02-20T07:57:15.704Z,100464.34
2023-02-20T07:58:17.971Z,100468.28
2023-02-20T07:59:20.268Z,100469.66
2023-02-20T08:00:23.806Z,100462.34
2023-02-20T08:01:26.228Z,100471.59
2023-02-20T08:02:28.455Z,100467.88
2023-02-20T08:03:30.638Z,100470.03
2023-02-20T08:04:32.839Z,100475.63
2023-02-20T08:05:48.076Z,100467.50
2023-02-20T08:06:51.168Z,100467.94
2023-02-20T08:07:54.579Z,100465.34
2023-02-20T08:08:56.908Z,100473.63
2023-02-20T08:09:59.220Z,100468.63
2023-02-20T08:11:08.936Z,100475.34
2023-02-20T08:12:13.007Z,100472.41
2023-02-20T08:13:15.214Z,100468.31
2023-02-20T08:14:17.990Z,100477.44
2023-02-20T08:15:21.164Z,100466.28
2023-02-20T08:16:23.415Z,100472.81
2023-02-20T08:17:31.919Z,100468.19
2023-02-20T08:18:39.671Z,100466.69
2023-02-20T08:19:41.891Z,100464.00
2023-02-20T08:20:44.163Z,100460.44
2023-02-20T08:21:46.402Z,100458.81
2023-02-20T08:22:50.179Z,100458.34
2023-02-20T08:23:52.608Z,100462.81
2023-02-20T08:24:54.956Z,100452.59
2023-02-20T08:25:57.230Z,100457.94
2023-02-20T08:26:59.492Z,100448.19
2023-02-20T08:28:01.761Z,100453.47
2023-02-20T08:29:04.016Z,100452.59
2023-02-20T08:30:06.954Z,100450.91
2023-02-20T08:31:09.897Z,100451.59
2023-02-20T08:32:15.227Z,100455.06
2023-02-20T08:33:18.703Z,100448.28
2023-02-20T08:34:20.953Z,100448.53
2023-02-20T08:35:24.935Z,100450.09
2023-02-20T08:36:27.371Z,100451.44
2023-02-20T08:37:29.628Z,100449.56
2023-02-20T08:38:35.549Z,100453.50
2023-02-20T08:39:37.964Z,100450.25
2023-02-20T08:40:40.238Z,100451.09
2023-02-20T08:41:46.237Z,100458.19
2023-02-20T08:42:51.613Z,100451.84
2023-02-20T08:43:53.877Z,100456.81
2023-02-20T08:44:56.100Z,100446.09
2023-02-20T08:45:58.378Z,100452.50
2023-02-20T08:47:00.628Z,100457.59
2023-02-20T08:48:03.166Z,100449.03
2023-02-20T08:49:05.391Z,100451.16
2023-02-20T08:50:07.646Z,100443.94
2023-02-20T08:51:09.979Z,100451.53
2023-02-20T08:52:12.234Z,100451.81
2023-02-20T08:53:14.956Z,100446.53
2023-02-20T08:54:17.226Z,100452.75
2023-02-20T08:55:19.517Z,100451.28
2023-02-20T08:56:22.245Z,100448.28
2023-02-20T08:57:24.434Z,100452.00
2023-02-20T08:58:27.040Z,100447.97
2023-02-20T08:59:32.176Z,100449.41
2023-02-20T09:00:34.604Z,100452.34
2023-02-20T09:01:36.919Z,100447.22
2023-02-20T09:02:39.286Z,100444.88
2023-02-20T09:03:43.141Z,100444.09
2023-02-20T09:04:46.142Z,100448.09
2023-02-20T09:05:48.934Z,100432.59
2023-02-20T09:06:51.217Z,100438.72
2023-02-20T09:07:53.482Z,100444.50
2023-02-20T09:08:55.989Z,100438.25
2023-02-20T09:09:58.537Z,100442.88
2023-02-20T09:11:00.956Z,100436.94
2023-02-20T09:12:03.475Z,100430.72
2023-02-20T09:13:05.795Z,100441.16
2023-02-20T09:14:09.642Z,100437.31
2023-02-20T09:15:12.913Z,100435.84
2023-02-20T09:16:18.657Z,100442.00
2023-02-20T09:17:20.930Z,100443.00
2023-02-20T09:18:23.270Z,100431.03
2023-02-20T09:19:25.505Z,100437.00
2023-02-20T09:20:27.792Z,100432.88
2023-02-20T09:21:30.025Z,100427.06
2023-02-20T09:22:32.391Z,100430.78
2023-02-20T09:23:34.572Z,100433.25
2023-02-20T09:24:36.816Z,100418.97
2023-02-20T09:25:39.007Z,100421.63
2023-02-20T09:26:41.212Z,100418.78
2023-02-20T09:27:43.459Z,100424.75
2023-02-20T09:28:45.745Z,100420.13
2023-02-20T09:29:47.992Z,100418.34
2023-02-20T09:30:50.217Z,100415.44
2023-02-20T09:31:52.743Z,100423.50
2023-02-20T09:32:55.196Z,100411.41
2023-02-20T09:33:57.562Z,100416.97
2023-02-20T09:34:59.833Z,100413.16
2023-02-20T09:36:02.104Z,100413.25
2023-02-20T09:37:04.775Z,100422.06
2023-02-20T09:38:07.689Z,100422.13
2023-02-20T09:39:10.030Z,100438.81
2023-02-20T09:40:14.576Z,100421.84
2023-02-20T09:41:41.719Z,100419.97
2023-02-20T09:42:53.437Z,100420.69
2023-02-20T09:44:23.376Z,100417.50
2023-02-20T09:45:29.476Z,100405.19
2023-02-20T09:46:31.750Z,100416.56
2023-02-20T09:47:47.222Z,100405.66
2023-02-20T09:49:01.334Z,100404.03
2023-02-20T09:50:12.991Z,100400.88
2023-02-20T09:51:21.392Z,100407.50
2023-02-20T09:52:25.532Z,100399.25
2023-02-20T09:54:06.244Z,100402.38
2023-02-20T09:55:14.481Z,100399.34
2023-02-20T09:56:20.891Z,100391.03
2023-02-20T09:57:27.102Z,100390.03
2023-02-20T09:58:35.020Z,100387.16
2023-02-20T09:59:46.208Z,100385.63
2023-02-20T10:00:48.754Z,100383.13
2023-02-20T10:02:04.852Z,100382.09
2023-02-20T10:03:19.824Z,100379.94
2023-02-20T10:04:30.185Z,100375.69
2023-02-20T10:05:33.402Z,100388.03
2023-02-20T10:06:35.877Z,100386.53
2023-02-20T10:07:41.920Z,100381.81
2023-02-20T10:08:44.717Z,100386.44
2023-02-20T10:09:47.450Z,100380.22
2023-02-20T10:10:52.039Z,100375.44
2023-02-20T10:12:00.720Z,100381.50
2023-02-20T10:13:52.917Z,100371.56
2023-02-20T10:15:22.623Z,100370.41
2023-02-20T10:16:37.111Z,100370.66
2023-02-20T10:18:02.339Z,100372.53
2023-02-20T10:19:33.614Z,100375.59
2023-02-20T10:20:47.227Z,100382.97
2023-02-20T10:22:05.602Z,100374.97
2023-02-20T10:23:23.552Z,100379.78
2023-02-20T10:24:42.157Z,100374.31
2023-02-20T10:25:51.497Z,100375.75
2023-02-20T10:27:06.268Z,100387.22
2023-02-20T10:28:12.961Z,100374.06
2023-02-20T10:29:20.547Z,100378.81
2023-02-20T10:30:33.787Z,100368.97
2023-02-20T10:31:44.973Z,100376.03
2023-02-20T10:32:56.873Z,100374.72
2023-02-20T10:34:23.658Z,100367.81
2023-02-20T10:35:41.708Z,100364.44
2023-02-20T10:36:51.674Z,100371.88
2023-02-20T10:37:58.141Z,100372.34
2023-02-20T10:39:08.306Z,100372.56
2023-02-20T10:40:33.505Z,100372.63
2023-02-20T10:42:12.669Z,100375.88
2023-02-20T10:43:20.890Z,100371.34
2023-02-20T10:44:51.934Z,100377.38
2023-02-20T10:46:04.060Z,100369.78
2023-02-20T10:47:31.405Z,100376.47
2023-02-20T10:48:35.402Z,100373.22
2023-02-20T10:50:01.538Z,100376.97
2023-02-20T10:51:13.205Z,100367.91
2023-02-20T10:52:33.737Z,100361.16
2023-02-20T10:53:55.222Z,100373.44
2023-02-20T10:55:08.949Z,100363.50
2023-02-20T10:56:37.247Z,100357.13
2023-02-20T10:57:51.375Z,100359.06
2023-02-20T10:59:11.453Z,100361.13
2023-02-20T11:00:22.714Z,100361.38
2023-02-20T11:01:26.690Z,100370.78
2023-02-20T11:02:36.153Z,100367.72
2023-02-20T11:03:48.598Z,100370.44
2023-02-20T11:04:54.705Z,100360.41
2023-02-20T11:06:01.564Z,100358.03
2023-02-20T11:07:15.794Z,100349.78
2023-02-20T11:08:20.961Z,100356.00
2023-02-20T11:09:23.457Z,100351.13
2023-02-20T11:10:25.747Z,100350.75
2023-02-20T11:11:39.888Z,100353.44
2023-02-20T11:12:50.851Z,100340.91
2023-02-20T11:13:53.201Z,100348.31
2023-02-20T11:15:05.132Z,100346.66
2023-02-20T11:16:21.474Z,100339.00
2023-02-20T11:17:27.733Z,100347.16
2023-02-20T11:18:34.902Z,100348.97
2023-02-20T11:19:42.154Z,100349.63
2023-02-20T11:20:49.158Z,100342.78
2023-02-20T11:21:52.306Z,100347.22
2023-02-20T11:22:54.622Z,100340.72
2023-02-20T11:23:57.044Z,100342.56
2023-02-20T11:25:20.968Z,100339.09
2023-02-20T11:26:30.976Z,100334.31
2023-02-20T11:27:35.072Z,100348.03
2023-02-20T11:28:38.174Z,100335.50
2023-02-20T11:29:47.021Z,100331.09
2023-02-20T11:31:02.418Z,100325.94
2023-02-20T11:32:25.578Z,100328.13
2023-02-20T11:33:30.920Z,100320.22
2023-02-20T11:34:33.217Z,100322.59
2023-02-20T11:35:39.091Z,100312.66
2023-02-20T11:36:46.485Z,100314.25
2023-02-20T11:38:19.827Z,100312.50
2023-02-20T11:39:28.378Z,100307.28
2023-02-20T11:40:35.007Z,100309.84
2023-02-20T11:41:38.300Z,100296.63
2023-02-20T11:42:41.032Z,100298.81
2023-02-20T11:44:00.225Z,100304.31
2023-02-20T11:45:26.652Z,100296.94
2023-02-20T11:46:28.939Z,100292.84
2023-02-20T11:47:31.261Z,100290.16
2023-02-20T11:48:33.470Z,100298.19
2023-02-20T11:49:36.657Z,100291.03
2023-02-20T11:50:56.924Z,100286.81
2023-02-20T11:52:20.559Z,100294.41
2023-02-20T11:53:33.645Z,100285.50
2023-02-20T11:54:35.904Z,100287.75
2023-02-20T11:55:39.948Z,100286.78
2023-02-20T11:56:58.080Z,100273.66
2023-02-20T11:58:01.166Z,100282.13
2023-02-20T11:59:26.510Z,100271.94
2023-02-20T12:00:44.131Z,100271.06
2023-02-20T12:01:59.201Z,100265.09
2023-02-20T12:03:08.821Z,100263.25
2023-02-20T12:04:23.473Z,100255.56
2023-02-20T12:05:46.248Z,100247.59
2023-02-20T12:06:48.765Z,100263.56
2023-02-20T12:07:55.464Z,100244.69
2023-02-20T12:09:01.909Z,100246.13
2023-02-20T12:10:14.266Z,100241.00
2023-02-20T12:11:20.322Z,100243.63
2023-02-20T12:12:23.852Z,100248.94
2023-02-20T12:13:26.135Z,100239.22
2023-02-20T12:14:28.392Z,100240.81
2023-02-20T12:15:30.684Z,100239.75
2023-02-20T12:16:53.862Z,100245.44
2023-02-20T12:18:14.176Z,100229.66
2023-02-20T12:19:21.795Z,100241.16
2023-02-20T12:20:30.213Z,100230.22
2023-02-20T12:21:41.121Z,100226.31
2023-02-20T12:22:59.449Z,100229.16
2023-02-20T12:24:23.229Z,100230.56
2023-02-20T12:25:46.045Z,100213.88
2023-02-20T12:26:59.181Z,100218.94
2023-02-20T12:28:29.173Z,100214.59
2023-02-20T12:29:41.777Z,100213.88
2023-02-20T12:31:05.577Z,100213.69
2023-02-20T12:32:46.341Z,100216.72
2023-02-20T12:34:14.507Z,100214.25
2023-02-20T12:35:35.533Z,100225.81
2023-02-20T12:36:45.571Z,100213.88
2023-02-20T12:37:54.688Z,100219.00
2023-02-20T12:39:10.044Z,100216.06
2023-02-20T12:40:41.822Z,100211.47
2023-02-20T12:42:14.030Z,100216.16
2023-02-20T12:43:27.210Z,100217.56
2023-02-20T12:44:59.945Z,100216.34
2023-02-20T12:46:43.597Z,100214.09
2023-02-20T12:47:46.547Z,100208.59
2023-02-20T12:49:17.997Z,100206.13
2023-02-20T12:50:31.941Z,100216.59
2023-02-20T12:51:58.358Z,100213.50
2023-02-20T12:53:20.019Z,100209.13